Time;durP1;ratioP1;P1;durP2;ratioP2;P2;SDS_P1;SDS_P2;PMS_P1;PMS_P2;Temp;Humidity;BMP_temperature;BMP_pressure;BME280_temperature;BME280_humidity;BME280_pressure;Samples;Min_cycle;Max_cycle;Signal;HPM_P1;HPM_P2
2022/05/23 00:00:35;;;;;;;5.80;1.58;;;;;;;26.19;40.39;100474.91;5062778;28;20043;-46
2022/05/23 00:03:03;;;;;;;3.45;1.30;;;;;;;26.18;40.48;100474.03;5062516;28;20033;-47
2022/05/23 00:05:32;;;;;;;2.60;1.00;;;;;;;26.09;40.57;100474.03;5062550;28;20397;-45
2022/05/23 00:08:02;;;;;;;5.45;1.45;;;;;;;26.17;40.29;100460.91;5060853;28;20493;-46
2022/05/23 00:10:30;;;;;;;4.43;1.50;;;;;;;26.09;40.46;100459.13;5062898;28;20028;-45
2022/05/23 00:12:59;;;;;;;5.10;1.25;;;;;;;25.97;40.79;100442.56;5062481;28;20033;-45
2022/05/23 00:15:28;;;;;;;5.05;1.38;;;;;;;25.88;40.96;100440.84;5064671;28;20045;-44
2022/05/23 00:17:57;;;;;;;6.38;1.20;;;;;;;26.08;40.37;100449.50;5056111;28;20506;-45
2022/05/23 00:20:26;;;;;;;5.28;1.50;;;;;;;26.04;40.64;100444.28;5047357;28;20044;-46
2022/05/23 00:22:55;;;;;;;3.00;1.10;;;;;;;25.86;40.73;100440.81;5050855;28;20055;-47
2022/05/23 00:25:25;;;;;;;3.83;1.00;;;;;;;25.86;40.89;100437.34;5066395;28;20091;-46
2022/05/23 00:27:54;;;;;;;4.45;1.25;;;;;;;26.03;40.26;100438.16;5066781;28;20048;-46
2022/05/23 00:30:26;;;;;;;2.78;1.30;;;;;;;26.13;40.16;100440.75;5066524;28;20067;-45
2022/05/23 00:35:53;;;;;;;6.68;1.73;;;;;;;26.05;39.86;100436.41;5061461;28;20168;-45
2022/05/23 00:38:21;;;;;;;2.85;1.10;;;;;;;26.14;39.95;100432.00;5047776;28;20021;-47
2022/05/23 00:43:13;;;;;;;5.45;1.45;;;;;;;25.97;40.33;100439.94;5046977;28;20052;-45
2022/05/23 00:43:42;;;;;;;3.72;1.40;;;;;;;26.00;40.08;100434.63;5058431;28;20488;-47
2022/05/23 00:46:13;;;;;;;4.15;1.50;;;;;;;25.93;39.96;100426.78;5064352;28;20037;-48
2022/05/23 00:48:41;;;;;;;2.70;1.35;;;;;;;25.96;40.05;100428.53;5066177;28;20406;-44
2022/05/23 00:51:13;;;;;;;4.13;1.30;;;;;;;25.88;39.64;100428.56;5081306;28;20558;-47
2022/05/23 00:53:48;;;;;;;3.50;1.38;;;;;;;25.92;39.75;100434.66;5048944;28;20083;-45
2022/05/23 00:56:17;;;;;;;4.60;1.08;;;;;;;25.77;39.59;100428.59;5059175;28;20029;-45
2022/05/23 00:58:49;;;;;;;3.70;1.20;;;;;;;25.66;40.19;100425.13;5063821;28;20037;-46
2022/05/23 01:01:20;;;;;;;2.80;1.05;;;;;;;25.59;40.35;100436.50;5057792;28;20024;-45
2022/05/23 01:03:48;;;;;;;2.25;0.95;;;;;;;25.73;39.74;100424.22;5064326;28;20067;-47
2022/05/23 01:06:17;;;;;;;5.03;1.30;;;;;;;25.81;39.66;100420.69;5065462;28;20086;-49
2022/05/23 01:08:47;;;;;;;3.22;1.02;;;;;;;25.57;40.12;100420.78;5065732;28;20032;-45
2022/05/23 01:11:16;;;;;;;6.28;1.45;;;;;;;25.48;40.26;100419.03;5064099;28;20037;-48
2022/05/23 01:13:44;;;;;;;3.13;1.13;;;;;;;25.47;40.31;100416.44;5053142;28;20131;-46
2022/05/23 01:16:13;;;;;;;4.07;1.20;;;;;;;25.57;40.10;100412.88;5046397;28;20036;-45
2022/05/23 01:18:42;;;;;;;4.15;1.30;;;;;;;25.61;39.68;100396.25;5056255;28;20021;-45
2022/05/23 01:21:17;;;;;;;2.92;1.30;;;;;;;25.54;39.57;100399.75;5046604;28;20457;-46
2022/05/23 01:24:11;;;;;;;3.58;1.63;;;;;;;25.74;39.61;100415.44;5046281;28;20268;-45
2022/05/23 01:26:39;;;;;;;4.70;1.40;;;;;;;25.66;39.40;100409.38;5047697;28;20072;-46
2022/05/23 01:29:17;;;;;;;5.18;1.50;;;;;;;25.55;39.55;100419.03;5065274;28;20033;-46
2022/05/23 01:31:45;;;;;;;3.72;1.40;;;;;;;25.54;39.32;100417.28;5065482;28;20105;-44
2022/05/23 01:34:14;;;;;;;4.25;1.40;;;;;;;25.36;39.46;100384.00;5064847;28;20036;-45
2022/05/23 01:36:42;;;;;;;4.32;1.58;;;;;;;25.24;39.98;100403.28;5064417;28;20077;-47
2022/05/23 01:39:11;;;;;;;4.30;1.48;;;;;;;25.43;39.49;100399.78;5064629;28;20407;-46
2022/05/23 01:41:40;;;;;;;3.42;1.48;;;;;;;25.39;39.54;100400.66;5065287;28;20029;-45
2022/05/23 01:44:08;;;;;;;3.83;1.58;;;;;;;25.42;39.48;100415.56;5054420;28;20086;-45
2022/05/23 01:46:37;;;;;;;3.70;1.38;;;;;;;25.36;39.60;100407.63;5053245;28;20174;-44
2022/05/23 01:49:05;;;;;;;4.78;1.60;;;;;;;25.39;39.64;100405.00;5046631;28;20059;-45
2022/05/23 01:51:34;;;;;;;4.97;1.25;;;;;;;25.47;39.13;100411.19;5046043;28;20481;-45
2022/05/23 01:54:02;;;;;;;4.78;1.38;;;;;;;25.58;39.16;100419.00;5051098;28;20032;-49
2022/05/23 01:56:31;;;;;;;3.22;0.93;;;;;;;25.59;38.62;100426.00;5045830;28;20029;-46
2022/05/23 02:01:46;;;;;;;5.28;1.15;;;;;;;25.39;39.44;100418.16;5061154;28;20482;-47
2022/05/23 02:04:15;;;;;;;4.95;1.30;;;;;;;25.44;38.49;100416.44;5050138;28;20041;-47
2022/05/23 02:06:44;;;;;;;5.28;1.30;;;;;;;25.43;37.92;100404.19;5048838;28;20024;-47
2022/05/23 02:09:12;;;;;;;3.25;1.17;;;;;;;25.33;38.27;100427.78;5064232;28;20035;-46
2022/05/23 02:11:41;;;;;;;3.60;1.58;;;;;;;25.21;38.51;100424.31;5064283;28;20028;-45
2022/05/23 02:14:09;;;;;;;3.95;1.30;;;;;;;25.22;38.98;100429.53;5058415;28;20055;-47
2022/05/23 02:16:37;;;;;;;4.95;1.10;;;;;;;25.15;38.53;100433.06;5063773;28;20028;-47
2022/05/23 02:19:06;;;;;;;4.28;1.17;;;;;;;25.20;38.47;100433.06;5053311;28;21256;-47
2022/05/23 02:21:34;;;;;;;5.45;1.42;;;;;;;25.16;38.61;100434.78;5051959;28;20056;-47
2022/05/23 02:24:03;;;;;;;3.85;1.27;;;;;;;25.18;37.96;100433.94;5058900;28;20053;-46
2022/05/23 02:26:33;;;;;;;4.20;1.27;;;;;;;25.32;37.79;100447.03;5045195;28;20049;-49
2022/05/23 02:29:02;;;;;;;2.33;0.80;;;;;;;25.13;38.27;100433.03;5047469;28;20060;-45
2022/05/23 02:31:31;;;;;;;3.30;1.00;;;;;;;25.03;38.50;100439.19;5045451;28;20083;-45
2022/05/23 02:33:59;;;;;;;4.07;1.23;;;;;;;25.02;38.19;100440.91;5045033;28;20028;-45
2022/05/23 02:36:28;;;;;;;3.85;1.00;;;;;;;25.06;38.14;100440.91;5054936;28;20127;-47
2022/05/23 02:38:56;;;;;;;3.28;0.93;;;;;;;25.05;37.78;100428.66;5063544;28;20128;-47
2022/05/23 02:41:25;;;;;;;5.50;1.33;;;;;;;25.18;37.22;100441.81;5063584;28;20033;-45
2022/05/23 02:43:54;;;;;;;4.25;1.15;;;;;;;25.03;37.68;100444.44;5063318;28;20409;-45
2022/05/23 02:46:23;;;;;;;3.75;1.00;;;;;;;24.83;38.05;100431.28;5063654;28;20024;-49
2022/05/23 02:48:51;;;;;;;3.17;0.90;;;;;;;24.96;37.80;100433.06;5063043;28;20110;-45
2022/05/23 02:51:20;;;;;;;3.88;0.90;;;;;;;24.79;38.46;100421.69;5063468;28;20389;-48
2022/05/23 02:53:48;;;;;;;1.90;0.88;;;;;;;24.93;37.77;100429.53;5047582;28;20033;-45
2022/05/23 02:56:17;;;;;;;4.32;1.40;;;;;;;24.74;38.53;100437.38;5059108;28;20370;-44
2022/05/23 02:58:46;;;;;;;4.88;1.15;;;;;;;24.63;38.66;100432.13;5063245;28;20029;-47
2022/05/23 03:01:14;;;;;;;3.55;1.02;;;;;;;24.68;38.18;100426.88;5063575;28;20032;-45
2022/05/23 03:03:43;;;;;;;3.33;1.10;;;;;;;24.67;38.33;100430.38;5044348;28;20442;-46
2022/05/23 03:06:12;;;;;;;4.38;1.05;;;;;;;24.75;38.41;100417.28;5063235;28;20478;-45
2022/05/23 03:08:40;;;;;;;1.85;0.80;;;;;;;24.61;38.30;100406.75;5063177;28;20543;-44
2022/05/23 03:11:09;;;;;;;1.40;0.68;;;;;;;24.65;38.30;100414.63;5063061;28;20036;-47
2022/05/23 03:13:38;;;;;;;2.55;1.25;;;;;;;24.68;38.18;100398.88;5062962;28;20056;-46
2022/05/23 03:16:12;;;;;;;4.97;1.30;;;;;;;24.80;36.88;100412.94;5062902;28;20113;-46
2022/05/23 03:18:40;;;;;;;5.38;1.33;;;;;;;24.77;37.41;100413.78;5044350;28;20028;-46
2022/05/23 03:21:10;;;;;;;4.80;1.35;;;;;;;24.92;36.84;100412.94;5044332;28;20475;-49
2022/05/23 03:27:11;;;;;;;3.17;1.02;;;;;;;24.63;37.31;100405.00;5043441;28;20053;-48
2022/05/23 03:29:16;;;;;;;3.53;1.08;;;;;;;24.73;37.46;100410.28;5040436;28;20036;-45
2022/05/23 03:31:45;;;;;;;4.55;1.25;;;;;;;24.70;37.29;100412.03;5043737;28;20052;-47
2022/05/23 03:34:14;;;;;;;2.92;1.02;;;;;;;24.82;36.96;100401.56;5043955;28;20025;-49
2022/05/23 03:36:42;;;;;;;5.78;1.40;;;;;;;24.69;37.22;100400.63;5043677;28;20386;-50
2022/05/23 03:39:11;;;;;;;3.28;1.30;;;;;;;24.72;37.09;100399.81;5043985;28;20064;-46
2022/05/23 03:41:39;;;;;;;2.92;1.23;;;;;;;24.52;37.88;100395.38;5043568;28;20057;-47
2022/05/23 03:44:08;;;;;;;3.55;1.10;;;;;;;24.51;37.77;100390.13;5043933;28;20033;-45
2022/05/23 03:46:36;;;;;;;4.40;2.00;;;;;;;24.51;37.67;100396.25;5044117;28;20029;-49
2022/05/23 03:49:10;;;;;;;4.03;1.75;;;;;;;24.61;37.42;100401.50;5043864;28;20534;-46
2022/05/23 03:51:39;;;;;;;6.40;2.13;;;;;;;24.55;37.54;100387.53;5044035;28;20021;-48
2022/05/23 03:54:07;;;;;;;6.63;1.88;;;;;;;24.55;37.94;100387.53;5043755;28;20664;-44
2022/05/23 03:56:36;;;;;;;7.00;1.83;;;;;;;24.57;38.05;100385.75;5043736;28;20445;-48
2022/05/23 03:59:05;;;;;;;4.72;1.85;;;;;;;24.55;38.01;100381.38;5062009;28;20024;-47
2022/05/23 04:01:33;;;;;;;3.63;1.80;;;;;;;24.68;37.70;100385.75;5062529;28;20081;-49
2022/05/23 04:04:02;;;;;;;6.45;3.08;;;;;;;24.72;37.51;100381.44;5062310;28;20027;-47
2022/05/23 04:06:31;;;;;;;5.45;1.95;;;;;;;24.75;37.42;100377.94;5062185;28;20885;-46
2022/05/23 04:08:59;;;;;;;4.28;2.00;;;;;;;24.63;37.92;100370.91;5062870;28;20029;-46
2022/05/23 04:11:28;;;;;;;5.50;2.35;;;;;;;24.55;37.75;100378.75;5062517;28;20757;-47
2022/05/23 04:13:56;;;;;;;5.90;2.33;;;;;;;24.63;38.04;100379.66;5052972;28;20037;-49
2022/05/23 04:16:27;;;;;;;5.68;2.80;;;;;;;24.54;37.80;100375.28;5043436;28;20331;-46
2022/05/23 04:18:55;;;;;;;5.95;2.72;;;;;;;24.67;37.54;100378.75;5048527;28;20610;-47
2022/05/23 04:21:24;;;;;;;6.57;2.95;;;;;;;24.55;37.63;100378.75;5062164;28;20065;-48
2022/05/23 04:23:53;;;;;;;6.32;2.63;;;;;;;24.60;37.46;100384.00;5062268;28;20029;-47
2022/05/23 04:26:21;;;;;;;5.53;2.88;;;;;;;24.55;37.44;100378.75;5062354;28;20113;-45
2022/05/23 04:28:49;;;;;;;7.45;3.15;;;;;;;24.63;37.62;100391.88;5062437;28;20021;-48
2022/05/23 04:31:19;;;;;;;4.32;2.30;;;;;;;24.52;38.00;100392.75;5062627;28;20551;-45
2022/05/23 04:36:35;;;;;;;5.45;2.53;;;;;;;24.49;37.75;100381.41;5061589;28;20093;-50
2022/05/23 04:39:03;;;;;;;7.50;3.15;;;;;;;24.42;38.36;100383.09;5062299;28;20024;-48
2022/05/23 04:41:32;;;;;;;7.25;2.67;;;;;;;24.32;38.51;100390.09;5048837;28;20490;-46
2022/05/23 04:44:00;;;;;;;5.82;2.90;;;;;;;24.27;38.13;100366.47;5041949;28;20033;-47
2022/05/23 04:46:30;;;;;;;5.95;3.00;;;;;;;24.36;38.08;100381.34;5043337;28;20029;-46
2022/05/23 04:49:41;;;;;;;5.30;2.10;;;;;;;24.34;38.60;100379.59;5042984;28;20024;-49
2022/05/23 04:51:46;;;;;;;3.83;2.22;;;;;;;24.37;38.30;100380.47;5039452;28;20041;-49
2022/05/23 04:54:14;;;;;;;6.05;3.05;;;;;;;24.37;38.49;100377.84;5043149;28;20033;-48
2022/05/23 04:56:43;;;;;;;6.38;2.70;;;;;;;24.33;38.20;100370.00;5043200;28;20021;-46
2022/05/23 04:59:11;;;;;;;6.35;2.63;;;;;;;24.35;38.55;100369.13;5062773;28;20041;-47
2022/05/23 05:01:40;;;;;;;5.95;2.33;;;;;;;24.32;38.36;100363.88;5065302;28;20359;-47
2022/05/23 05:04:08;;;;;;;7.07;3.15;;;;;;;24.34;38.49;100367.38;5055293;28;20027;-48
2022/05/23 05:06:37;;;;;;;8.95;2.88;;;;;;;24.44;38.33;100365.63;5047243;28;20035;-48
2022/05/23 05:09:05;;;;;;;6.55;2.53;;;;;;;24.32;38.47;100370.88;5046724;28;20033;-46
2022/05/23 05:11:34;;;;;;;7.18;2.42;;;;;;;24.40;38.53;100388.34;5046548;28;20374;-51
2022/05/23 05:14:02;;;;;;;6.15;3.10;;;;;;;24.29;38.59;100379.59;5046610;28;20037;-46
2022/05/23 05:16:31;;;;;;;9.13;3.58;;;;;;;24.37;38.69;100390.97;5046578;28;20060;-48
2022/05/23 05:19:00;;;;;;;5.18;3.20;;;;;;;24.18;38.47;100355.97;5062130;28;20033;-45
2022/05/23 05:21:28;;;;;;;7.40;3.30;;;;;;;24.36;38.67;100370.00;5065600;28;20478;-46
2022/05/23 05:23:56;;;;;;;5.45;2.70;;;;;;;24.29;38.63;100382.22;5065234;28;20068;-45
2022/05/23 05:26:25;;;;;;;6.20;3.35;;;;;;;24.18;39.03;100376.94;5064645;28;20055;-45
2022/05/23 05:28:53;;;;;;;5.03;3.42;;;;;;;24.14;39.32;100375.19;5065003;28;20086;-49
2022/05/23 05:31:43;;;;;;;4.20;2.35;;;;;;;24.17;39.26;100376.94;5065399;28;20086;-48
2022/05/23 05:34:34;;;;;;;8.80;3.25;;;;;;;24.14;39.17;100379.56;5055587;28;20119;-46
2022/05/23 05:37:07;;;;;;;7.32;2.67;;;;;;;24.12;39.47;100377.81;5055577;28;20043;-50
2022/05/23 05:39:37;;;;;;;6.78;2.80;;;;;;;24.16;39.37;100375.22;5065123;28;20314;-45
2022/05/23 05:42:09;;;;;;;6.28;2.60;;;;;;;24.16;39.67;100383.94;5065116;28;20142;-47
2022/05/23 05:44:41;;;;;;;4.60;2.55;;;;;;;24.10;39.40;100368.19;5064992;28;20033;-47
2022/05/23 05:47:11;;;;;;;6.68;2.28;;;;;;;24.18;39.50;100363.84;5055355;28;20025;-48
2022/05/23 05:49:42;;;;;;;7.10;2.45;;;;;;;24.26;39.30;100358.63;5065205;28;20032;-45
2022/05/23 05:52:13;;;;;;;5.25;2.60;;;;;;;24.20;39.58;100366.47;5065107;28;20024;-45
2022/05/23 05:54:42;;;;;;;5.88;2.28;;;;;;;24.19;39.98;100370.84;5064959;28;20064;-45
2022/05/23 05:57:12;;;;;;;4.35;1.70;;;;;;;24.06;40.30;100367.31;5064522;28;20033;-46
2022/05/23 05:59:41;;;;;;;4.43;1.67;;;;;;;24.00;39.97;100367.28;5063325;28;20036;-46
2022/05/23 06:02:09;;;;;;;6.75;1.23;;;;;;;24.06;39.96;100367.31;5055333;28;20025;-46
2022/05/23 06:04:38;;;;;;;3.33;1.15;;;;;;;24.27;39.79;100371.72;5064753;28;20546;-48
2022/05/23 06:12:40;;;;;;;2.03;0.80;;;;;;;24.15;39.58;100353.34;5043928;28;20037;-46
2022/05/23 06:15:08;;;;;;;2.53;0.77;;;;;;;24.33;39.58;100363.00;5045622;28;20036;-45
2022/05/23 06:17:42;;;;;;;4.28;1.20;;;;;;;24.35;39.25;100366.50;5045605;28;20032;-45
2022/05/23 06:20:12;;;;;;;3.33;1.13;;;;;;;24.35;39.67;100374.34;5045361;28;20041;-45
2022/05/23 06:22:41;;;;;;;3.38;1.20;;;;;;;24.37;39.89;100371.75;5045040;28;20036;-46
2022/05/23 06:25:10;;;;;;;3.33;1.00;;;;;;;24.32;39.38;100368.25;5045558;28;20064;-45
2022/05/23 06:27:39;;;;;;;4.93;1.00;;;;;;;24.34;39.88;100374.38;5045525;28;20063;-45
2022/05/23 06:30:09;;;;;;;2.05;0.75;;;;;;;24.35;39.47;100365.63;5045386;28;20553;-51
2022/05/23 06:32:38;;;;;;;3.72;0.90;;;;;;;24.26;39.77;100367.34;5045116;28;20041;-45
2022/05/23 06:35:08;;;;;;;2.58;1.17;;;;;;;24.24;39.77;100369.09;5045070;28;20041;-49
2022/05/23 06:37:37;;;;;;;4.93;1.65;;;;;;;24.31;39.72;100375.25;5045041;28;20029;-46
2022/05/23 06:40:07;;;;;;;6.30;1.27;;;;;;;24.31;39.70;100375.25;5045049;28;20506;-47
2022/05/23 06:42:36;;;;;;;3.88;1.08;;;;;;;24.25;40.17;100369.97;5045024;28;20043;-45
2022/05/23 06:45:05;;;;;;;3.35;1.10;;;;;;;24.23;40.46;100371.72;5044797;28;20106;-47
2022/05/23 06:47:34;;;;;;;1.83;0.82;;;;;;;24.18;40.18;100349.84;5044647;28;20120;-46
2022/05/23 06:50:02;;;;;;;3.30;1.10;;;;;;;24.31;39.67;100377.88;5044534;28;20526;-45
2022/05/23 06:52:31;;;;;;;2.22;0.90;;;;;;;24.37;39.83;100374.38;5044808;28;20836;-45
2022/05/23 06:55:00;;;;;;;3.55;1.38;;;;;;;24.43;40.07;100371.75;5044588;28;20033;-46
2022/05/23 06:57:28;;;;;;;2.58;0.90;;;;;;;24.53;39.91;100388.38;5044706;28;20139;-47
2022/05/23 06:59:57;;;;;;;6.53;1.77;;;;;;;24.66;39.82;100394.50;5044134;28;20048;-45
2022/05/23 07:02:25;;;;;;;4.13;1.40;;;;;;;24.45;39.64;100387.50;5044589;28;20036;-44
2022/05/23 07:13:13;;;;;;;4.20;1.42;;;;;;;24.45;39.58;100405.84;5040505;28;20047;-46
2022/05/23 07:15:46;;;;;;;3.60;1.23;;;;;;;24.28;40.08;100393.56;5044460;28;20025;-46
2022/05/23 07:18:19;;;;;;;3.38;1.10;;;;;;;24.35;40.22;100405.81;5043253;28;20253;-48
2022/05/23 07:20:47;;;;;;;3.17;0.95;;;;;;;24.45;40.22;100405.84;5044275;28;20040;-47
2022/05/23 07:23:16;;;;;;;4.90;1.33;;;;;;;24.60;39.89;100419.00;5043508;28;20119;-48
2022/05/23 07:25:45;;;;;;;2.90;1.00;;;;;;;24.64;39.56;100412.00;5044058;28;20059;-47
2022/05/23 07:28:14;;;;;;;5.53;1.38;;;;;;;24.80;39.62;100420.81;5043898;28;20029;-46
2022/05/23 07:30:43;;;;;;;9.65;1.65;;;;;;;24.84;39.65;100417.28;5043965;28;20047;-49
2022/05/23 07:33:11;;;;;;;6.65;1.15;;;;;;;24.89;39.74;100412.94;5043831;28;20044;-45
2022/05/23 07:35:38;;;;;;;3.53;0.98;;;;;;;24.94;39.09;100400.69;5043964;28;20521;-44
2022/05/23 07:38:09;;;;;;;4.90;1.20;;;;;;;24.98;39.21;100405.06;5044108;28;20102;-49
2022/05/23 07:40:37;;;;;;;3.80;1.38;;;;;;;24.87;39.30;100405.06;5044263;28;20024;-48
2022/05/23 07:43:06;;;;;;;5.53;1.55;;;;;;;24.93;39.35;100406.81;5043587;28;20468;-46
2022/05/23 07:45:34;;;;;;;3.42;1.02;;;;;;;25.17;38.68;100398.06;5044043;28;20367;-47
2022/05/23 07:48:03;;;;;;;4.82;1.17;;;;;;;25.12;39.01;100399.78;5043321;28;20035;-46
2022/05/23 07:50:31;;;;;;;5.25;1.10;;;;;;;25.09;38.91;100399.78;5043840;28;20025;-46
2022/05/23 08:01:21;;;;;;;6.63;1.67;;;;;;;25.24;38.29;100390.16;5039637;28;20529;-46
2022/05/23 08:03:49;;;;;;;5.22;1.60;;;;;;;25.01;38.37;100365.69;5043286;28;20079;-46
2022/05/23 08:06:18;;;;;;;4.60;1.30;;;;;;;25.19;38.42;100390.16;5043470;28;20040;-47
2022/05/23 08:08:47;;;;;;;4.38;1.48;;;;;;;25.22;37.76;100382.28;5043695;28;20375;-48
2022/05/23 08:11:17;;;;;;;4.15;1.10;;;;;;;25.21;37.86;100392.81;5043687;28;20021;-47
2022/05/23 08:13:48;;;;;;;5.80;1.52;;;;;;;25.17;37.90;100399.78;5043679;28;20033;-48
2022/05/23 08:16:16;;;;;;;4.55;1.10;;;;;;;25.03;37.98;100400.69;5043416;28;20068;-47
2022/05/23 08:18:45;;;;;;;3.80;1.10;;;;;;;25.05;38.09;100397.19;5043702;28;20027;-47
2022/05/23 08:21:14;;;;;;;6.45;1.42;;;;;;;25.06;38.39;100404.19;5043578;28;20079;-46
2022/05/23 08:23:43;;;;;;;3.92;1.23;;;;;;;25.00;38.21;100400.66;5043499;28;20043;-47
2022/05/23 08:26:12;;;;;;;5.43;1.48;;;;;;;24.98;38.02;100394.56;5043452;28;20044;-48
2022/05/23 08:28:41;;;;;;;6.38;2.00;;;;;;;25.04;38.40;100401.56;5043543;28;20045;-46
2022/05/23 08:31:09;;;;;;;4.38;1.13;;;;;;;25.05;38.06;100387.56;5043360;28;20051;-50
2022/05/23 08:33:38;;;;;;;5.38;1.35;;;;;;;25.19;37.88;100384.91;5043141;28;20039;-48
2022/05/23 08:36:06;;;;;;;3.08;1.50;;;;;;;25.18;38.14;100380.53;5054291;28;20385;-48
2022/05/23 08:38:35;;;;;;;6.78;1.60;;;;;;;25.25;37.63;100382.28;5066006;28;20036;-48
2022/05/23 08:41:25;;;;;;;3.95;1.20;;;;;;;25.38;37.26;100380.53;5066123;28;20032;-46
2022/05/23 08:43:53;;;;;;;10.68;1.52;;;;;;;25.42;37.44;100368.28;5064536;28;20367;-52
2022/05/23 08:46:32;;;;;;;6.57;1.90;;;;;;;25.39;37.81;100373.50;5065986;28;20029;-48
2022/05/23 08:49:19;;;;;;;3.75;1.23;;;;;;;25.42;37.72;100370.91;5066381;28;20028;-49
2022/05/23 08:52:15;;;;;;;6.88;1.63;;;;;;;25.31;37.14;100365.66;5058261;28;20039;-45
2022/05/23 08:55:06;;;;;;;6.95;1.42;;;;;;;25.28;37.37;100370.91;5055993;28;20044;-49
2022/05/23 08:58:12;;;;;;;4.32;1.05;;;;;;;25.29;37.64;100370.91;5046905;28;20041;-49
2022/05/23 09:00:55;;;;;;;6.88;1.60;;;;;;;25.19;37.32;100358.66;5063035;28;20094;-45
2022/05/23 09:03:35;;;;;;;2.97;1.02;;;;;;;25.15;37.90;100351.69;5055539;28;20032;-46
2022/05/23 09:06:13;;;;;;;5.15;1.25;;;;;;;25.22;37.79;100349.94;5065457;28;20032;-47
2022/05/23 09:08:50;;;;;;;5.47;1.58;;;;;;;25.35;37.53;100349.03;5054384;28;20021;-46
2022/05/23 09:11:46;;;;;;;5.72;1.30;;;;;;;25.44;37.48;100341.13;5046379;28;20024;-46
2022/05/23 09:14:17;;;;;;;5.43;1.40;;;;;;;25.54;37.38;100341.13;5046422;28;20554;-46
2022/05/23 09:16:50;;;;;;;3.85;1.33;;;;;;;25.43;37.16;100349.88;5046664;28;20483;-48
2022/05/23 09:19:21;;;;;;;3.83;1.20;;;;;;;25.40;37.43;100346.38;5046750;28;20025;-51
2022/05/23 09:22:32;;;;;;;5.43;1.55;;;;;;;25.48;37.24;100335.00;5046195;28;20548;-45
2022/05/23 09:24:57;;;;;;;8.23;1.60;;;;;;;25.59;36.65;100340.22;5045738;28;20419;-50
2022/05/23 09:27:36;;;;;;;4.68;1.27;;;;;;;25.45;36.90;100337.63;5046426;28;20045;-48
2022/05/23 09:30:06;;;;;;;7.35;1.58;;;;;;;25.25;37.06;100337.66;5064305;28;20028;-46
2022/05/23 09:32:43;;;;;;;5.55;1.58;;;;;;;25.17;37.27;100342.03;5065041;28;20062;-48
2022/05/23 09:35:22;;;;;;;3.88;1.52;;;;;;;25.31;36.98;100345.53;5064989;28;20032;-48
2022/05/23 09:38:04;;;;;;;4.95;1.60;;;;;;;25.40;37.39;100341.13;5065113;28;20060;-44
2022/05/23 09:40:35;;;;;;;7.57;1.30;;;;;;;25.38;37.05;100348.13;5065206;28;20218;-49
2022/05/23 09:49:23;;;;;;;4.97;1.73;;;;;;;25.30;36.42;100358.66;5039636;28;20029;-45
2022/05/23 09:51:58;;;;;;;5.95;2.15;;;;;;;25.37;36.31;100349.00;5055972;28;20576;-45
2022/05/23 09:54:30;;;;;;;6.10;1.40;;;;;;;25.21;36.48;100362.16;5041478;28;20041;-49
2022/05/23 09:56:59;;;;;;;6.43;1.40;;;;;;;25.11;36.65;100355.19;5052643;28;20131;-48
2022/05/23 09:59:31;;;;;;;4.57;1.38;;;;;;;25.14;36.59;100360.44;5040954;28;20090;-46
2022/05/23 10:02:19;;;;;;;6.30;1.92;;;;;;;24.86;36.84;100363.06;5042314;28;20040;-46
2022/05/23 10:04:49;;;;;;;9.30;1.55;;;;;;;24.84;37.03;100372.69;5040914;28;20025;-49
2022/05/23 10:07:23;;;;;;;8.02;2.10;;;;;;;24.77;37.19;100376.19;5042443;28;20461;-49
2022/05/23 10:09:58;;;;;;;4.90;1.60;;;;;;;24.51;37.90;100383.13;5041760;28;20300;-49
2022/05/23 10:12:26;;;;;;;11.48;2.03;;;;;;;24.28;38.65;100375.22;5041364;28;20410;-47
2022/05/23 10:15:04;;;;;;;7.03;1.95;;;;;;;24.20;39.51;100384.81;5040044;28;20035;-50
2022/05/23 10:17:37;;;;;;;8.38;2.35;;;;;;;24.12;39.49;100377.81;5036299;28;20985;-50
2022/05/23 10:20:29;;;;;;;6.35;1.75;;;;;;;24.25;39.50;100380.47;5041973;28;20033;-45
2022/05/23 10:23:04;;;;;;;8.75;1.83;;;;;;;24.41;39.33;100387.50;5038632;28;20037;-46
2022/05/23 10:25:50;;;;;;;;;;;;;;;24.49;38.93;100381.41;5063436;28;20057;-45
2022/05/23 10:28:26;;;;;;;5.95;1.83;;;;;;;24.12;39.81;100372.56;5056292;28;19927;-45
2022/05/23 10:31:25;;;;;;;8.50;1.50;;;;;;;24.18;40.25;100376.94;5064217;28;20089;-51
2022/05/23 10:34:16;;;;;;;11.05;2.45;;;;;;;24.16;39.90;100376.06;5054249;28;20068;-45
2022/05/23 10:36:48;;;;;;;10.93;1.95;;;;;;;24.23;39.82;100371.72;5041288;28;20055;-45
2022/05/23 10:42:27;;;;;;;8.82;1.65;;;;;;;24.32;40.27;100368.25;5060173;28;20123;-45
2022/05/23 10:45:15;;;;;;;14.15;2.88;;;;;;;24.32;40.38;100376.09;5054185;28;20136;-46
2022/05/23 10:48:05;;;;;;;6.45;2.15;;;;;;;24.23;40.25;100374.34;5063751;28;20169;-46
2022/05/23 10:50:42;;;;;;;8.68;1.85;;;;;;;24.40;40.11;100374.38;5056385;28;20037;-45
2022/05/23 10:53:31;;;;;;;6.30;1.75;;;;;;;24.46;39.87;100371.75;5063898;28;20044;-50
2022/05/23 10:56:18;;;;;;;12.02;2.42;;;;;;;24.54;39.74;100383.16;5044804;28;20045;-48
2022/05/23 10:58:54;;;;;;;8.50;2.03;;;;;;;24.38;39.89;100381.38;5041410;28;20095;-46
2022/05/23 11:01:50;;;;;;;7.50;2.38;;;;;;;24.22;40.14;100372.59;5044912;28;20021;-45
2022/05/23 11:04:41;;;;;;;7.78;2.10;;;;;;;24.10;40.30;100382.16;5057102;28;20071;-49
2022/05/23 11:07:41;;;;;;;10.55;2.40;;;;;;;23.82;40.95;100365.44;5029722;28;20127;-48
2022/05/23 11:10:31;;;;;;;10.25;2.40;;;;;;;23.65;41.61;100368.00;5040536;28;20045;-47
2022/05/23 11:13:27;;;;;;;7.43;1.90;;;;;;;23.74;41.23;100373.25;5037033;28;20056;-45
2022/05/23 11:16:00;;;;;;;11.68;2.78;;;;;;;23.66;41.41;100369.75;5040365;28;20068;-46
2022/05/23 11:18:55;;;;;;;6.80;1.80;;;;;;;23.69;41.11;100374.97;5053522;28;20039;-45
2022/05/23 11:21:30;;;;;;;10.95;2.70;;;;;;;23.65;41.21;100375.84;5040157;28;20048;-51
2022/05/23 11:24:23;;;;;;;4.63;1.67;;;;;;;23.70;41.08;100376.72;5042891;28;20025;-45
2022/05/23 11:33:41;;;;;;;9.00;2.35;;;;;;;23.66;41.01;100374.97;5043924;28;20510;-48
2022/05/23 11:35:23;;;;;;;6.28;1.80;;;;;;;24.03;40.43;100376.91;5043716;28;20478;-49
2022/05/23 11:37:52;;;;;;;10.35;2.90;;;;;;;23.99;40.03;100362.94;5047370;28;20024;-48
2022/05/23 11:40:29;;;;;;;5.82;1.45;;;;;;;24.03;40.23;100366.44;5044095;28;20041;-48
2022/05/23 11:43:01;;;;;;;5.90;1.90;;;;;;;23.86;40.29;100358.47;5043936;28;20475;-48
2022/05/23 11:46:15;;;;;;;10.25;1.85;;;;;;;23.82;40.10;100366.31;5051971;28;20040;-48
2022/05/23 11:48:36;;;;;;;7.68;2.25;;;;;;;23.90;38.35;100368.09;5058708;28;20496;-49
2022/05/23 11:51:24;;;;;;;9.63;1.67;;;;;;;23.80;38.55;100380.25;5062702;28;20040;-47
2022/05/23 11:54:03;;;;;;;9.57;2.00;;;;;;;23.81;38.72;100371.53;5062902;28;20043;-45
2022/05/23 11:56:33;;;;;;;6.38;1.83;;;;;;;23.64;38.65;100379.34;5063019;28;20025;-45
2022/05/23 11:59:01;;;;;;;7.22;1.67;;;;;;;23.81;38.51;100379.41;5062296;28;20089;-48
2022/05/23 12:01:30;;;;;;;9.30;1.58;;;;;;;23.86;38.24;100387.28;5062675;28;20115;-46
2022/05/23 12:03:58;;;;;;;7.72;2.13;;;;;;;23.64;38.70;100384.56;5043285;28;20504;-46
2022/05/23 12:06:28;;;;;;;10.00;2.30;;;;;;;23.64;38.72;100388.03;5043963;28;20131;-46
2022/05/23 12:09:16;;;;;;;8.98;2.33;;;;;;;23.76;37.99;100375.88;5043625;28;20101;-44
2022/05/23 12:11:46;;;;;;;9.70;1.98;;;;;;;23.78;37.70;100382.00;5047236;28;20029;-50
2022/05/23 12:14:15;;;;;;;6.13;1.55;;;;;;;23.86;37.83;100384.66;5047840;28;20474;-50
2022/05/23 12:17:05;;;;;;;6.65;1.83;;;;;;;23.85;38.04;100386.41;5056325;28;20505;-49
2022/05/23 12:19:43;;;;;;;5.78;1.60;;;;;;;23.92;38.01;100375.06;5033853;28;20070;-45
2022/05/23 12:22:32;;;;;;;6.75;1.88;;;;;;;24.10;37.79;100379.56;5047754;28;20115;-48
2022/05/23 12:25:23;;;;;;;9.25;1.83;;;;;;;24.12;37.78;100371.69;5046361;28;20033;-48
2022/05/23 12:27:51;;;;;;;6.65;2.10;;;;;;;24.01;38.01;100357.69;5047377;28;20049;-50
2022/05/23 12:30:20;;;;;;;5.60;1.98;;;;;;;24.11;37.63;100378.69;5047668;28;20120;-50
2022/05/23 12:32:55;;;;;;;9.88;1.90;;;;;;;23.87;37.52;100373.31;5047580;28;20078;-49
2022/05/23 12:35:42;;;;;;;8.68;2.08;;;;;;;24.05;37.72;100381.28;5047246;28;20021;-49
2022/05/23 12:38:48;;;;;;;7.32;1.65;;;;;;;24.01;37.87;100389.97;5040196;28;20046;-48